Time;durP1;ratioP1;P1;durP2;ratioP2;P2;SDS_P1;SDS_P2;PMS_P1;PMS_P2;Temp;Humidity;BMP_temperature;BMP_pressure;BME280_temperature;BME280_humidity;BME280_pressure;Samples;Min_cycle;Max_cycle;Signal;HPM_P1;HPM_P2
2023/03/03 00:00:46;;;;;;;59.90;23.40;;;2.60;99.90;;;;;;5042806;28;20309;-74
2023/03/03 00:03:24;;;;;;;55.27;22.60;;;2.60;99.90;;;;;;5027078;28;20762;-72
2023/03/03 00:05:52;;;;;;;54.50;24.13;;;2.60;99.90;;;;;;5040572;28;20322;-73
2023/03/03 00:08:19;;;;;;;58.73;22.17;;;2.60;99.90;;;;;;5039297;28;20308;-73
2023/03/03 00:10:46;;;;;;;50.30;20.87;;;2.60;99.90;;;;;;5038136;28;20758;-73
2023/03/03 00:13:22;;;;;;;47.63;20.77;;;2.60;99.90;;;;;;5038070;28;20670;-71
2023/03/03 00:15:50;;;;;;;45.93;20.10;;;2.60;99.90;;;;;;5035880;28;20238;-73
2023/03/03 00:18:29;;;;;;;51.43;22.07;;;2.60;99.90;;;;;;5039196;28;20305;-72
2023/03/03 00:20:59;;;;;;;45.27;19.97;;;2.60;99.90;;;;;;5041549;28;20204;-73
2023/03/03 00:23:39;;;;;;;52.63;21.37;;;2.50;99.90;;;;;;5018735;28;20200;-73
2023/03/03 00:26:35;;;;;;;51.73;22.57;;;2.60;99.90;;;;;;5021076;28;20302;-74
2023/03/03 00:29:25;;;;;;;54.07;22.50;;;2.50;99.90;;;;;;5038362;28;20227;-72
2023/03/03 00:31:52;;;;;;;60.53;23.57;;;2.50;99.90;;;;;;5037705;28;20234;-73
2023/03/03 00:34:24;;;;;;;55.83;22.20;;;2.50;99.90;;;;;;5039773;28;20269;-72
2023/03/03 00:36:56;;;;;;;59.60;24.43;;;2.50;99.90;;;;;;5024821;28;20196;-72
2023/03/03 00:39:38;;;;;;;63.07;22.67;;;2.50;99.90;;;;;;5042468;28;20209;-74
2023/03/03 00:42:15;;;;;;;55.40;23.93;;;2.50;99.90;;;;;;5051620;28;20223;-72
2023/03/03 00:44:47;;;;;;;60.90;22.93;;;2.60;99.90;;;;;;5039068;28;20213;-73
2023/03/03 00:47:25;;;;;;;66.03;25.27;;;2.60;99.90;;;;;;5041589;28;20206;-73
2023/03/03 00:50:15;;;;;;;58.87;24.17;;;2.60;99.90;;;;;;5037237;28;20687;-73
2023/03/03 00:52:58;;;;;;;61.73;23.13;;;2.60;99.90;;;;;;5030245;28;20290;-72
2023/03/03 00:55:26;;;;;;;61.87;23.63;;;2.60;99.90;;;;;;5043132;28;20194;-72
2023/03/03 00:57:53;;;;;;;62.33;23.47;;;2.60;99.90;;;;;;5039856;28;20208;-73
2023/03/03 01:00:20;;;;;;;58.90;23.97;;;2.60;99.90;;;;;;5039950;28;20255;-71
2023/03/03 01:02:47;;;;;;;63.83;24.27;;;2.60;99.90;;;;;;5039017;28;20311;-72
2023/03/03 01:05:16;;;;;;;59.53;23.43;;;2.60;99.90;;;;;;5036760;28;21004;-74
2023/03/03 01:07:42;;;;;;;70.33;24.57;;;2.60;99.90;;;;;;5038981;28;20308;-73
2023/03/03 01:10:10;;;;;;;64.50;24.03;;;2.60;99.90;;;;;;5038459;28;20640;-73
2023/03/03 01:12:37;;;;;;;62.10;25.47;;;2.50;99.90;;;;;;5040981;28;20288;-73
2023/03/03 01:15:09;;;;;;;56.50;21.47;;;2.60;99.90;;;;;;5037779;28;21130;-73
2023/03/03 01:17:38;;;;;;;55.50;21.47;;;2.60;99.90;;;;;;5037775;28;20231;-72
2023/03/03 01:20:07;;;;;;;59.63;24.13;;;2.60;99.90;;;;;;5040250;28;20263;-73
2023/03/03 01:22:34;;;;;;;50.90;22.00;;;2.60;99.90;;;;;;5021160;28;20312;-71
2023/03/03 01:25:02;;;;;;;53.27;23.20;;;2.60;99.90;;;;;;5018528;28;20332;-72
2023/03/03 01:27:30;;;;;;;54.83;22.47;;;2.60;99.90;;;;;;5040731;28;20204;-72
2023/03/03 01:29:57;;;;;;;49.83;20.27;;;2.60;99.90;;;;;;5029222;28;20218;-74
2023/03/03 01:32:25;;;;;;;54.17;20.83;;;2.60;99.90;;;;;;5004277;28;20214;-73
2023/03/03 01:34:52;;;;;;;53.97;21.37;;;2.60;99.90;;;;;;5032330;28;20211;-73
2023/03/03 01:37:19;;;;;;;52.73;21.10;;;2.60;99.90;;;;;;5042424;28;20280;-72
2023/03/03 01:39:51;;;;;;;56.63;21.33;;;2.60;99.90;;;;;;5020983;28;20242;-72
2023/03/03 01:42:20;;;;;;;50.27;20.37;;;2.50;99.90;;;;;;5028057;28;20296;-71
2023/03/03 01:44:47;;;;;;;53.47;22.93;;;2.50;99.90;;;;;;5043584;28;20203;-72
2023/03/03 01:47:27;;;;;;;57.43;22.53;;;2.50;99.90;;;;;;5026270;28;20206;-72
2023/03/03 01:50:10;;;;;;;49.60;20.77;;;2.50;99.90;;;;;;5040805;28;20237;-74
2023/03/03 01:52:41;;;;;;;54.60;22.30;;;2.50;99.90;;;;;;5029649;28;20290;-73
2023/03/03 01:55:23;;;;;;;50.70;22.13;;;2.50;99.90;;;;;;5045074;28;20241;-73
2023/03/03 01:58:08;;;;;;;52.23;20.53;;;2.50;99.90;;;;;;5045217;28;20218;-73
2023/03/03 02:00:38;;;;;;;52.13;20.80;;;2.50;99.90;;;;;;5041413;28;20214;-72
2023/03/03 02:03:05;;;;;;;55.57;21.97;;;2.50;99.90;;;;;;5041870;28;20767;-73
2023/03/03 02:05:33;;;;;;;55.30;21.87;;;2.50;99.90;;;;;;5046896;28;20234;-72
2023/03/03 02:08:00;;;;;;;53.90;20.87;;;2.50;99.90;;;;;;5044457;28;20229;-73
2023/03/03 02:10:28;;;;;;;49.67;20.33;;;2.50;99.90;;;;;;5028433;28;20265;-71
2023/03/03 02:12:56;;;;;;;56.67;21.47;;;2.50;99.90;;;;;;5048698;28;20297;-74
2023/03/03 02:15:32;;;;;;;51.53;20.77;;;2.50;99.90;;;;;;5044212;28;20783;-73
2023/03/03 02:18:03;;;;;;;48.87;21.40;;;2.50;99.90;;;;;;5045051;28;20309;-73
2023/03/03 02:20:52;;;;;;;55.60;21.93;;;2.50;99.90;;;;;;5042871;28;20208;-72
2023/03/03 02:23:38;;;;;;;50.43;21.23;;;2.50;99.90;;;;;;5038353;28;20353;-73
2023/03/03 02:26:14;;;;;;;54.93;22.00;;;2.40;99.90;;;;;;5045721;28;20203;-74
2023/03/03 02:28:42;;;;;;;48.83;20.93;;;2.40;99.90;;;;;;5043360;28;20730;-72
2023/03/03 02:31:13;;;;;;;57.70;22.77;;;2.40;99.90;;;;;;5043690;28;20263;-73
2023/03/03 02:33:45;;;;;;;52.50;21.60;;;2.40;99.90;;;;;;5042973;28;20209;-72
2023/03/03 02:36:18;;;;;;;56.50;21.07;;;2.40;99.90;;;;;;5015420;28;20220;-73
2023/03/03 02:39:08;;;;;;;56.63;22.37;;;2.40;99.90;;;;;;5026808;28;20218;-73
2023/03/03 02:41:56;;;;;;;55.37;23.93;;;2.50;99.90;;;;;;5030553;28;20248;-72
2023/03/03 02:44:26;;;;;;;54.47;21.60;;;2.50;99.90;;;;;;5041739;28;20223;-72
2023/03/03 02:46:54;;;;;;;54.87;20.90;;;2.50;99.90;;;;;;5024042;28;20717;-72
2023/03/03 02:49:24;;;;;;;53.93;22.40;;;2.50;99.90;;;;;;5023934;28;20763;-71
2023/03/03 02:51:51;;;;;;;55.40;20.87;;;2.60;99.90;;;;;;5026848;28;20290;-72
2023/03/03 02:54:21;;;;;;;51.83;21.17;;;2.50;99.90;;;;;;5023436;28;20242;-74
2023/03/03 02:56:49;;;;;;;52.87;19.73;;;2.50;99.90;;;;;;5045731;28;20209;-72
2023/03/03 02:59:16;;;;;;;53.53;22.10;;;2.50;99.90;;;;;;5026441;28;20240;-72
2023/03/03 03:01:44;;;;;;;50.13;22.00;;;2.50;99.90;;;;;;5038569;28;20218;-72
2023/03/03 03:04:16;;;;;;;48.10;20.37;;;2.50;99.90;;;;;;5045296;28;20231;-73
2023/03/03 03:06:43;;;;;;;55.13;21.27;;;2.50;99.90;;;;;;5046083;28;20350;-73
2023/03/03 03:09:12;;;;;;;48.97;20.43;;;2.40;99.90;;;;;;5044194;28;20263;-72
2023/03/03 03:11:39;;;;;;;47.73;19.90;;;2.40;99.90;;;;;;5040254;28;20294;-72
2023/03/03 03:14:07;;;;;;;47.93;18.13;;;2.40;99.90;;;;;;5044354;28;20319;-73
2023/03/03 03:16:35;;;;;;;53.73;20.53;;;2.30;99.90;;;;;;5044828;28;20207;-72
2023/03/03 03:19:03;;;;;;;56.13;21.00;;;2.30;99.90;;;;;;5025809;28;20224;-72
2023/03/03 03:21:31;;;;;;;47.87;19.07;;;2.30;99.90;;;;;;5028615;28;20238;-72
2023/03/03 03:23:58;;;;;;;45.40;18.20;;;2.30;99.90;;;;;;5043081;28;20215;-72
2023/03/03 03:26:24;;;;;;;55.73;22.63;;;2.40;99.90;;;;;;5041566;28;20915;-71
2023/03/03 03:28:52;;;;;;;55.47;22.27;;;2.40;99.90;;;;;;5023500;28;20208;-72
2023/03/03 03:31:20;;;;;;;53.73;21.63;;;2.40;99.90;;;;;;5040672;28;20322;-72
2023/03/03 03:33:47;;;;;;;54.73;21.43;;;2.50;99.90;;;;;;5048476;28;20655;-73
2023/03/03 03:36:15;;;;;;;58.17;22.87;;;2.50;99.90;;;;;;5039355;28;20294;-72
2023/03/03 03:38:42;;;;;;;53.00;19.87;;;2.50;99.90;;;;;;5043332;28;20277;-73
2023/03/03 03:41:10;;;;;;;49.30;19.40;;;2.50;99.90;;;;;;5042834;28;20298;-74
2023/03/03 03:43:37;;;;;;;45.23;17.90;;;2.50;99.90;;;;;;5022411;28;20545;-73
2023/03/03 03:46:04;;;;;;;47.20;18.30;;;2.50;99.90;;;;;;5025240;28;20591;-72
2023/03/03 03:48:31;;;;;;;46.67;18.67;;;2.50;99.90;;;;;;5042916;28;20226;-71
2023/03/03 03:50:59;;;;;;;45.83;18.43;;;2.50;99.90;;;;;;5044199;28;20317;-73
2023/03/03 03:53:26;;;;;;;40.47;16.70;;;2.50;99.90;;;;;;5042844;28;20256;-73
2023/03/03 03:55:53;;;;;;;41.77;17.07;;;2.50;99.90;;;;;;5025352;28;20215;-72
2023/03/03 03:58:20;;;;;;;41.67;16.13;;;2.50;99.90;;;;;;5040469;28;20697;-72
2023/03/03 04:00:47;;;;;;;32.07;15.27;;;2.50;99.90;;;;;;5035609;28;20302;-72
2023/03/03 04:03:14;;;;;;;44.57;16.37;;;2.40;99.90;;;;;;5042524;28;20593;-74
2023/03/03 04:05:41;;;;;;;40.53;17.47;;;2.50;99.90;;;;;;5026968;28;20295;-72
2023/03/03 04:08:08;;;;;;;40.90;17.80;;;2.40;99.90;;;;;;5023470;28;20299;-73
2023/03/03 04:10:37;;;;;;;44.47;18.40;;;2.40;99.90;;;;;;5020392;28;20321;-72
2023/03/03 04:13:03;;;;;;;40.50;17.60;;;2.40;99.90;;;;;;5018885;28;20204;-74
2023/03/03 04:15:30;;;;;;;46.10;17.77;;;2.40;99.90;;;;;;5028824;28;20203;-72
2023/03/03 04:17:57;;;;;;;40.10;17.27;;;2.50;99.90;;;;;;5021981;28;20220;-72
2023/03/03 04:20:24;;;;;;;40.37;17.77;;;2.50;99.90;;;;;;5018365;28;20205;-72
2023/03/03 04:22:51;;;;;;;37.30;15.93;;;2.40;99.90;;;;;;5023526;28;20358;-73
2023/03/03 04:25:18;;;;;;;34.43;15.10;;;2.40;99.90;;;;;;5021411;28;20740;-73
2023/03/03 04:27:45;;;;;;;38.90;15.03;;;2.40;99.90;;;;;;5022866;28;20277;-73
2023/03/03 04:30:14;;;;;;;35.47;14.87;;;2.40;99.90;;;;;;5017171;28;20770;-73
2023/03/03 04:32:42;;;;;;;36.80;14.30;;;2.40;99.90;;;;;;5018940;28;20224;-72
2023/03/03 04:35:10;;;;;;;33.37;14.10;;;2.30;99.90;;;;;;5020033;28;20208;-74
2023/03/03 04:37:37;;;;;;;33.33;13.97;;;2.30;99.90;;;;;;5019573;28;20214;-73
2023/03/03 04:40:07;;;;;;;36.73;15.17;;;2.30;99.90;;;;;;5018427;28;20212;-72
2023/03/03 04:42:34;;;;;;;42.93;16.17;;;2.20;99.90;;;;;;5019353;28;20659;-73
2023/03/03 04:45:02;;;;;;;49.13;18.77;;;2.30;99.90;;;;;;5021289;28;20293;-73
2023/03/03 04:47:31;;;;;;;41.50;18.00;;;2.40;99.90;;;;;;5020901;28;20684;-73
2023/03/03 04:49:58;;;;;;;47.87;18.17;;;2.40;99.90;;;;;;5023298;28;20237;-74
2023/03/03 04:52:24;;;;;;;54.27;18.77;;;2.40;99.90;;;;;;5022231;28;20211;-73
2023/03/03 04:54:51;;;;;;;46.80;18.87;;;2.40;99.90;;;;;;5021966;28;20588;-71
2023/03/03 04:57:18;;;;;;;46.87;17.73;;;2.40;99.90;;;;;;5018161;28;20301;-74
2023/03/03 04:59:45;;;;;;;41.93;16.03;;;2.40;99.90;;;;;;5016474;28;20207;-72
2023/03/03 05:02:12;;;;;;;41.37;16.00;;;2.40;99.90;;;;;;5018292;28;20211;-71
2023/03/03 05:04:38;;;;;;;41.93;16.53;;;2.30;99.90;;;;;;5028663;28;20316;-72
2023/03/03 05:07:05;;;;;;;36.43;12.67;;;2.40;99.90;;;;;;5044269;28;20206;-73
2023/03/03 05:09:32;;;;;;;38.23;14.83;;;2.30;99.90;;;;;;5038910;28;20209;-72
2023/03/03 05:11:59;;;;;;;36.43;14.80;;;2.40;99.90;;;;;;5041465;28;20692;-73
2023/03/03 05:14:26;;;;;;;36.30;14.27;;;2.40;99.90;;;;;;5042430;28;20205;-72
2023/03/03 05:16:53;;;;;;;40.07;15.83;;;2.40;99.90;;;;;;5019582;28;20222;-74
2023/03/03 05:19:20;;;;;;;40.83;15.43;;;2.40;99.90;;;;;;5041091;28;20297;-73
2023/03/03 05:21:47;;;;;;;39.27;14.97;;;2.40;99.90;;;;;;5029462;28;20671;-75
2023/03/03 05:24:14;;;;;;;39.70;14.97;;;2.40;99.90;;;;;;5030066;28;20252;-73
2023/03/03 05:26:40;;;;;;;36.10;14.10;;;2.40;99.90;;;;;;5025586;28;20213;-73
2023/03/03 05:29:08;;;;;;;41.20;16.03;;;2.50;99.90;;;;;;5022253;28;20212;-72
2023/03/03 05:31:35;;;;;;;37.37;14.10;;;2.50;99.90;;;;;;5022480;28;20316;-72
2023/03/03 05:34:02;;;;;;;44.20;15.63;;;2.50;99.90;;;;;;5037720;28;20277;-73
2023/03/03 05:36:29;;;;;;;36.90;13.70;;;2.50;99.90;;;;;;5041916;28;20211;-72
2023/03/03 05:38:56;;;;;;;30.83;12.87;;;2.50;99.90;;;;;;5022870;28;20198;-72
2023/03/03 05:41:23;;;;;;;33.50;12.83;;;2.40;99.90;;;;;;5041187;28;20208;-72
2023/03/03 05:43:50;;;;;;;30.87;12.53;;;2.40;99.90;;;;;;5037749;28;20238;-73
2023/03/03 05:46:17;;;;;;;26.67;11.90;;;2.40;99.90;;;;;;5040980;28;20206;-73
2023/03/03 05:48:44;;;;;;;31.10;12.43;;;2.40;99.90;;;;;;5038663;28;20401;-73
2023/03/03 05:51:11;;;;;;;27.73;10.70;;;2.40;99.90;;;;;;5037732;28;20218;-73
2023/03/03 05:53:37;;;;;;;36.37;11.17;;;2.50;99.90;;;;;;5041076;28;20833;-73
2023/03/03 05:56:04;;;;;;;30.00;11.57;;;2.50;99.90;;;;;;5044443;28;20665;-74
2023/03/03 05:58:31;;;;;;;30.80;10.93;;;2.50;99.90;;;;;;5042383;28;20738;-72
2023/03/03 06:00:58;;;;;;;28.47;10.70;;;2.50;99.90;;;;;;5041658;28;20617;-72
2023/03/03 06:03:25;;;;;;;30.60;11.73;;;2.50;99.90;;;;;;5036254;28;20810;-73
2023/03/03 06:05:53;;;;;;;31.77;11.37;;;2.50;99.90;;;;;;5026992;28;20338;-72
2023/03/03 06:08:19;;;;;;;29.83;12.07;;;2.60;99.90;;;;;;5040009;28;20212;-73
2023/03/03 06:10:46;;;;;;;33.40;11.63;;;2.60;99.90;;;;;;5038014;28;20220;-72
2023/03/03 06:13:13;;;;;;;33.70;11.37;;;2.60;99.90;;;;;;5043404;28;20676;-74
2023/03/03 06:15:40;;;;;;;40.10;12.20;;;2.60;99.90;;;;;;5041378;28;20681;-73
2023/03/03 06:18:07;;;;;;;41.40;12.87;;;2.60;99.90;;;;;;5036024;28;20226;-73
2023/03/03 06:20:34;;;;;;;37.60;13.37;;;2.70;99.90;;;;;;5041374;28;20208;-71
2023/03/03 06:23:01;;;;;;;51.73;13.40;;;2.70;99.90;;;;;;5022427;28;20222;-72
2023/03/03 06:25:28;;;;;;;43.10;13.60;;;2.60;99.90;;;;;;5038924;28;20209;-73
2023/03/03 06:27:54;;;;;;;44.50;12.83;;;2.60;99.90;;;;;;5040974;28;20873;-72
2023/03/03 06:30:21;;;;;;;48.73;13.23;;;2.50;99.90;;;;;;5040251;28;20654;-72
2023/03/03 06:32:48;;;;;;;49.77;13.87;;;2.50;99.90;;;;;;5028422;28;20623;-75
2023/03/03 06:35:15;;;;;;;49.23;13.57;;;2.60;99.90;;;;;;5040533;28;20401;-73
2023/03/03 06:37:41;;;;;;;60.97;13.67;;;2.60;99.90;;;;;;5039088;28;20608;-71
2023/03/03 06:40:09;;;;;;;55.60;14.43;;;2.60;99.90;;;;;;5040437;28;20210;-73
2023/03/03 06:42:35;;;;;;;47.63;13.43;;;2.60;99.90;;;;;;5035864;28;20205;-73
2023/03/03 06:45:03;;;;;;;52.07;13.53;;;2.60;99.90;;;;;;5039105;28;20620;-73
2023/03/03 06:47:30;;;;;;;52.40;13.43;;;2.60;99.90;;;;;;5044487;28;20213;-73
2023/03/03 06:49:57;;;;;;;46.73;14.43;;;2.70;99.90;;;;;;5043255;28;20202;-71
2023/03/03 06:52:25;;;;;;;51.43;13.80;;;2.70;99.90;;;;;;5042197;28;20222;-72
2023/03/03 06:54:54;;;;;;;47.97;13.53;;;2.70;99.90;;;;;;5043144;28;20638;-71
2023/03/03 06:57:28;;;;;;;41.03;12.80;;;2.70;99.90;;;;;;5026110;28;20293;-72
2023/03/03 07:00:16;;;;;;;38.33;12.23;;;2.80;99.90;;;;;;5039790;28;20303;-71
2023/03/03 07:02:42;;;;;;;38.53;12.83;;;2.80;99.90;;;;;;5044079;28;20767;-73
2023/03/03 07:05:16;;;;;;;48.33;13.97;;;2.80;99.90;;;;;;5041602;28;20278;-72
2023/03/03 07:07:43;;;;;;;39.77;12.50;;;2.90;99.90;;;;;;5028237;28;20889;-71
2023/03/03 07:10:28;;;;;;;39.77;13.23;;;2.90;99.90;;;;;;5044700;28;20259;-72
2023/03/03 07:13:00;;;;;;;33.17;11.13;;;2.90;99.90;;;;;;5029914;28;20618;-71
2023/03/03 07:15:34;;;;;;;37.40;12.33;;;2.90;99.90;;;;;;5043897;28;20224;-73
2023/03/03 07:18:02;;;;;;;35.00;13.10;;;2.90;99.90;;;;;;5037908;28;20215;-72
2023/03/03 07:20:35;;;;;;;38.50;12.10;;;2.90;99.90;;;;;;5024868;28;20219;-72
2023/03/03 07:23:19;;;;;;;34.10;12.00;;;3.00;99.90;;;;;;5040984;28;20208;-71
2023/03/03 07:25:45;;;;;;;35.03;12.13;;;3.00;99.90;;;;;;5022524;28;20639;-72
2023/03/03 07:28:12;;;;;;;38.53;12.07;;;3.10;99.90;;;;;;5044426;28;20235;-73
2023/03/03 07:30:40;;;;;;;40.87;12.47;;;3.10;99.90;;;;;;5024316;28;20212;-72
2023/03/03 07:33:33;;;;;;;39.37;12.33;;;3.20;99.90;;;;;;5044491;28;20218;-71
2023/03/03 07:36:02;;;;;;;32.73;11.47;;;3.20;99.90;;;;;;5042423;28;20584;-71
2023/03/03 07:38:40;;;;;;;34.23;11.80;;;3.20;99.90;;;;;;5041636;28;20233;-71
2023/03/03 07:41:22;;;;;;;34.27;11.73;;;3.20;99.90;;;;;;5035660;28;20205;-72
2023/03/03 07:44:03;;;;;;;33.47;11.90;;;3.30;99.90;;;;;;5043633;28;20316;-74
2023/03/03 07:46:42;;;;;;;31.73;11.50;;;3.30;99.90;;;;;;5019460;28;20243;-71
2023/03/03 07:49:36;;;;;;;26.80;11.20;;;3.40;99.90;;;;;;5041767;28;20244;-71
2023/03/03 07:52:28;;;;;;;35.50;11.70;;;3.30;99.90;;;;;;5016184;28;20268;-72
2023/03/03 07:54:59;;;;;;;32.60;11.80;;;3.40;99.90;;;;;;5045358;28;20631;-71
2023/03/03 07:57:45;;;;;;;35.30;11.80;;;3.40;99.90;;;;;;5030569;28;20213;-71
2023/03/03 08:00:15;;;;;;;31.77;12.10;;;3.50;99.90;;;;;;5031322;28;20201;-71
2023/03/03 08:03:02;;;;;;;32.03;11.00;;;3.60;99.90;;;;;;5039165;28;20287;-72
2023/03/03 08:05:43;;;;;;;28.37;11.70;;;3.60;99.90;;;;;;5020271;28;20710;-72
2023/03/03 08:08:29;;;;;;;26.13;11.30;;;3.60;99.90;;;;;;5043071;28;20284;-72
2023/03/03 08:10:58;;;;;;;28.97;10.67;;;3.60;99.90;;;;;;5041158;28;20229;-72
2023/03/03 08:13:37;;;;;;;30.00;10.87;;;3.60;99.90;;;;;;5043668;28;20643;-74
2023/03/03 08:16:10;;;;;;;29.83;10.83;;;3.60;99.90;;;;;;5040525;28;20701;-71
2023/03/03 08:18:42;;;;;;;30.60;10.37;;;3.70;99.90;;;;;;5025725;28;20256;-72
2023/03/03 08:21:23;;;;;;;30.67;12.10;;;3.70;99.90;;;;;;5043658;28;20710;-72
2023/03/03 08:23:52;;;;;;;30.50;11.83;;;3.80;99.90;;;;;;5041986;28;20216;-71
2023/03/03 08:26:20;;;;;;;30.37;12.27;;;3.90;99.90;;;;;;5040491;28;20205;-71
2023/03/03 08:28:47;;;;;;;28.50;11.40;;;4.00;99.90;;;;;;5041274;28;20209;-71
2023/03/03 08:31:16;;;;;;;29.43;11.33;;;4.10;99.90;;;;;;5040725;28;20233;-72
2023/03/03 08:34:00;;;;;;;26.37;10.93;;;4.20;99.90;;;;;;5039956;28;20217;-72
2023/03/03 08:36:27;;;;;;;27.87;10.47;;;4.30;99.90;;;;;;5040618;28;20233;-73
2023/03/03 08:38:54;;;;;;;25.93;10.07;;;4.30;99.90;;;;;;5040750;28;20664;-70
2023/03/03 08:41:21;;;;;;;26.17;10.97;;;4.40;99.90;;;;;;5035056;28;20591;-72
2023/03/03 08:43:47;;;;;;;24.53;10.57;;;4.50;99.90;;;;;;5042144;28;20306;-71
2023/03/03 08:46:15;;;;;;;24.17;10.20;;;4.60;99.90;;;;;;5039278;28;20218;-71
2023/03/03 08:48:41;;;;;;;19.90;9.20;;;4.70;99.90;;;;;;5024255;28;20720;-71
2023/03/03 08:51:08;;;;;;;23.20;8.90;;;4.90;99.90;;;;;;5020043;28;20283;-72
2023/03/03 08:53:37;;;;;;;22.53;9.13;;;5.00;99.90;;;;;;5039540;28;20218;-71
2023/03/03 08:56:05;;;;;;;20.27;8.80;;;5.10;99.90;;;;;;5045399;28;20278;-72
2023/03/03 08:58:32;;;;;;;18.20;9.07;;;5.20;99.90;;;;;;5039160;28;20254;-72
2023/03/03 09:01:02;;;;;;;15.40;7.90;;;5.40;99.90;;;;;;5039981;28;20259;-71
2023/03/03 09:03:29;;;;;;;20.10;7.90;;;5.50;99.90;;;;;;5022946;28;20706;-74
2023/03/03 09:05:56;;;;;;;13.87;7.80;;;5.60;99.90;;;;;;5038628;28;20793;-73
2023/03/03 09:08:23;;;;;;;23.30;9.47;;;5.70;99.90;;;;;;5022774;28;20263;-74
2023/03/03 09:10:49;;;;;;;17.87;7.77;;;5.90;99.90;;;;;;5040786;28;20688;-73
2023/03/03 09:13:18;;;;;;;15.30;7.50;;;6.00;99.90;;;;;;5023961;28;20221;-72
2023/03/03 09:15:46;;;;;;;14.13;6.57;;;6.10;99.90;;;;;;5021617;28;20209;-73
2023/03/03 09:18:35;;;;;;;12.43;7.17;;;6.20;99.90;;;;;;5041498;28;20228;-75
2023/03/03 09:21:34;;;;;;;13.03;6.80;;;6.30;99.90;;;;;;5031055;28;20205;-73
2023/03/03 09:24:01;;;;;;;12.70;7.47;;;6.20;99.90;;;;;;5017241;28;20710;-73
2023/03/03 09:26:46;;;;;;;13.83;7.20;;;6.20;99.90;;;;;;5040644;28;20745;-74
2023/03/03 09:29:13;;;;;;;16.77;7.07;;;6.30;99.90;;;;;;5030207;28;20259;-72
2023/03/03 09:31:49;;;;;;;13.27;7.97;;;6.30;99.90;;;;;;5030154;28;20281;-73
2023/03/03 09:34:22;;;;;;;16.43;7.17;;;6.40;99.90;;;;;;5041763;28;20216;-74
2023/03/03 09:36:53;;;;;;;13.13;7.20;;;6.40;99.90;;;;;;5025480;28;20208;-72
2023/03/03 09:39:25;;;;;;;16.53;6.67;;;6.50;99.90;;;;;;5036677;28;21003;-73
2023/03/03 09:42:15;;;;;;;15.67;7.13;;;6.50;99.90;;;;;;5024548;28;20221;-73
2023/03/03 09:45:00;;;;;;;13.50;6.20;;;6.60;99.90;;;;;;5040972;28;20215;-72
2023/03/03 09:47:39;;;;;;;15.13;7.37;;;6.70;99.90;;;;;;5041241;28;20222;-73
2023/03/03 09:50:25;;;;;;;14.47;6.90;;;6.80;99.90;;;;;;5037229;28;20206;-73
2023/03/03 09:53:07;;;;;;;12.07;6.47;;;6.90;99.90;;;;;;5041443;28;20224;-73
2023/03/03 09:55:49;;;;;;;13.37;6.83;;;7.00;99.90;;;;;;5040860;28;20201;-72
2023/03/03 09:58:44;;;;;;;13.70;6.13;;;7.00;99.90;;;;;;5039339;28;20293;-74
2023/03/03 10:01:37;;;;;;;10.10;5.70;;;7.00;99.90;;;;;;5039419;28;20688;-73
2023/03/03 10:04:29;;;;;;;16.13;6.47;;;6.90;99.90;;;;;;5040385;28;20260;-71
2023/03/03 10:07:33;;;;;;;12.60;6.57;;;7.00;99.90;;;;;;5044912;28;20202;-72
2023/03/03 10:10:18;;;;;;;10.13;6.17;;;7.10;99.90;;;;;;5042437;28;20209;-72
2023/03/03 10:13:20;;;;;;;15.60;6.10;;;7.30;99.90;;;;;;5043542;28;20681;-73
2023/03/03 10:15:49;;;;;;;12.27;6.30;;;7.50;99.90;;;;;;5039168;28;20628;-72
2023/03/03 10:18:35;;;;;;;12.57;7.20;;;7.70;99.90;;;;;;5044318;28;20473;-73
2023/03/03 10:21:19;;;;;;;13.17;6.73;;;7.60;99.90;;;;;;5045585;28;20296;-72
2023/03/03 10:23:53;;;;;;;10.57;6.43;;;7.70;99.90;;;;;;5042004;28;20211;-72
2023/03/03 10:26:49;;;;;;;12.13;6.30;;;7.80;99.90;;;;;;5033363;28;20297;-72
2023/03/03 10:30:16;;;;;;;10.13;6.40;;;7.90;99.90;;;;;;5043471;28;20221;-71
2023/03/03 10:33:00;;;;;;;13.77;6.23;;;8.00;99.90;;;;;;4948440;28;20230;-73
2023/03/03 10:35:44;;;;;;;11.90;6.07;;;8.10;99.90;;;;;;5036245;28;20201;-71
2023/03/03 10:38:31;;;;;;;12.93;6.80;;;8.20;99.90;;;;;;5041339;28;20205;-72
2023/03/03 10:41:24;;;;;;;11.57;6.93;;;8.40;99.90;;;;;;5044278;28;20248;-71
2023/03/03 10:44:14;;;;;;;11.10;6.70;;;8.40;99.90;;;;;;5009777;28;20589;-72
2023/03/03 10:46:51;;;;;;;10.30;6.27;;;8.50;99.90;;;;;;5044261;28;20652;-72
2023/03/03 10:49:25;;;;;;;12.97;7.07;;;8.60;99.90;;;;;;5039391;28;20222;-72
2023/03/03 10:52:11;;;;;;;8.60;6.00;;;8.60;99.90;;;;;;5042648;28;20317;-72
2023/03/03 10:55:24;;;;;;;11.50;6.30;;;8.50;99.90;;;;;;5041116;28;20664;-71
2023/03/03 10:58:25;;;;;;;12.20;6.33;;;8.40;99.90;;;;;;4934945;29;20303;-72
2023/03/03 11:01:12;;;;;;;14.23;6.27;;;8.40;99.90;;;;;;5046322;28;20212;-71
2023/03/03 11:03:59;;;;;;;16.40;7.03;;;8.30;99.90;;;;;;5042383;28;20227;-73
2023/03/03 11:06:52;;;;;;;13.03;6.20;;;8.30;99.90;;;;;;5040472;28;20649;-72
2023/03/03 11:09:45;;;;;;;13.07;6.83;;;8.20;99.90;;;;;;5042940;28;20231;-72
2023/03/03 11:12:24;;;;;;;12.20;6.53;;;8.10;99.90;;;;;;5039908;28;20235;-73
2023/03/03 11:15:10;;;;;;;9.67;5.80;;;8.00;99.90;;;;;;5036760;28;20566;-72
2023/03/03 11:17:48;;;;;;;11.30;6.33;;;7.90;99.90;;;;;;5040500;28;20341;-72
2023/03/03 11:20:34;;;;;;;9.47;5.80;;;7.90;99.90;;;;;;5041775;28;20291;-72
2023/03/03 11:23:46;;;;;;;12.70;5.90;;;8.00;99.90;;;;;;5044613;28;20288;-72
2023/03/03 11:26:41;;;;;;;15.57;5.87;;;8.20;99.90;;;;;;5041800;28;20198;-71
2023/03/03 11:29:31;;;;;;;10.27;5.50;;;8.40;99.90;;;;;;5039881;28;20634;-72
2023/03/03 11:32:32;;;;;;;11.20;5.57;;;8.50;99.90;;;;;;5040160;28;20239;-72
2023/03/03 11:35:08;;;;;;;11.50;5.37;;;8.60;99.90;;;;;;5040507;28;20194;-73
2023/03/03 11:37:45;;;;;;;9.23;5.20;;;8.70;99.90;;;;;;5020009;28;20239;-73
2023/03/03 11:40:19;;;;;;;8.93;4.60;;;8.80;99.90;;;;;;5039269;28;20197;-73
2023/03/03 11:43:09;;;;;;;7.67;5.03;;;8.90;99.90;;;;;;5023097;28;20206;-72
2023/03/03 11:45:49;;;;;;;9.70;4.27;;;9.00;99.90;;;;;;5017267;28;20210;-72
2023/03/03 11:48:40;;;;;;;9.70;4.87;;;9.10;99.90;;;;;;5039082;28;20215;-74
2023/03/03 11:51:56;;;;;;;7.23;4.23;;;9.30;99.90;;;;;;5025920;28;20207;-73
2023/03/03 11:54:29;;;;;;;6.93;4.30;;;9.50;99.90;;;;;;4944608;29;20330;-74
2023/03/03 11:57:22;;;;;;;6.83;3.87;;;9.50;99.90;;;;;;5030317;28;20202;-73
2023/03/03 12:00:03;;;;;;;6.07;3.97;;;9.50;99.90;;;;;;5039132;28;20205;-74
2023/03/03 12:02:42;;;;;;;6.53;3.57;;;9.60;99.90;;;;;;5025280;28;20254;-74
2023/03/03 12:05:21;;;;;;;6.83;3.30;;;9.60;99.90;;;;;;5038465;28;20243;-73
2023/03/03 12:08:06;;;;;;;6.37;3.23;;;9.80;99.90;;;;;;5042996;28;20217;-72
2023/03/03 12:10:43;;;;;;;5.23;3.37;;;9.90;99.90;;;;;;5040403;28;20243;-72
2023/03/03 12:13:33;;;;;;;7.60;3.07;;;9.80;99.90;;;;;;5043838;28;20239;-74
2023/03/03 12:16:30;;;;;;;7.93;3.43;;;10.00;99.90;;;;;;5039916;28;20236;-73
2023/03/03 12:19:27;;;;;;;7.80;3.33;;;10.10;99.90;;;;;;5042260;28;20221;-72
2023/03/03 12:22:10;;;;;;;6.47;2.90;;;10.20;99.90;;;;;;5047003;28;20566;-72
2023/03/03 12:24:46;;;;;;;5.57;2.83;;;10.20;99.90;;;;;;5020690;28;20717;-72
2023/03/03 12:27:42;;;;;;;4.70;3.13;;;10.20;99.90;;;;;;5027755;28;20203;-73
2023/03/03 12:30:24;;;;;;;4.70;2.77;;;10.20;99.90;;;;;;5042591;28;20260;-72
2023/03/03 12:33:06;;;;;;;6.03;2.97;;;10.20;99.90;;;;;;5045246;28;20236;-75
2023/03/03 12:35:41;;;;;;;5.57;2.90;;;10.10;99.90;;;;;;5041679;28;20198;-72
2023/03/03 12:38:37;;;;;;;8.73;3.30;;;9.90;99.90;;;;;;5044204;28;20252;-73
2023/03/03 12:41:44;;;;;;;3.60;2.90;;;9.80;99.90;;;;;;5043626;28;20260;-74
2023/03/03 12:44:28;;;;;;;5.73;3.07;;;9.70;99.90;;;;;;5022200;28;20209;-72
2023/03/03 12:47:08;;;;;;;7.27;3.10;;;9.70;99.90;;;;;;5037711;28;20275;-73
2023/03/03 12:49:45;;;;;;;4.83;3.10;;;9.70;99.90;;;;;;5038102;28;20219;-72
2023/03/03 12:52:36;;;;;;;5.00;2.83;;;9.80;99.90;;;;;;5025798;28;20221;-72
2023/03/03 12:55:15;;;;;;;7.23;2.90;;;9.90;99.90;;;;;;5040156;28;20233;-75
2023/03/03 12:58:03;;;;;;;6.73;3.13;;;10.00;99.90;;;;;;5041328;28;20276;-73
2023/03/03 13:00:41;;;;;;;4.30;2.30;;;10.10;99.90;;;;;;5037421;28;20299;-73
2023/03/03 13:03:34;;;;;;;4.93;2.60;;;10.10;99.90;;;;;;5041931;28;20209;-73
2023/03/03 13:07:00;;;;;;;9.37;3.17;;;10.10;99.90;;;;;;5034928;28;20218;-73
2023/03/03 13:09:52;;;;;;;6.50;2.80;;;10.10;99.90;;;;;;5035910;28;20664;-72
2023/03/03 13:12:34;;;;;;;5.70;2.47;;;10.20;99.90;;;;;;5044355;28;20328;-73
2023/03/03 13:15:22;;;;;;;4.73;3.00;;;10.40;99.90;;;;;;5026101;28;20287;-73
2023/03/03 13:18:00;;;;;;;5.00;2.90;;;10.40;99.90;;;;;;5026063;28;20217;-73
2023/03/03 13:20:49;;;;;;;6.37;2.50;;;10.50;99.90;;;;;;5038527;28;20590;-75